Franksville, WI

9:41 AM CDT on October 21, 2014 (GMT -0500)
K and U | Change Station
CLOSE
Current Station
Personal Weather Station
Location: Franksville, WI
Elevation: 720 ft
Nearby Weather Stations

Elev 720 ft 42.79 °N, 88.02 °W | Updated 12 minutes ago

Overcast
Overcast
49.3 °F
Feels Like 45 °F
N
11.0
Wind Variable Wind from West

Today
High -- | Low -- °F
--% Chance of Precip.
Yesterday
High -- | Low -- °F
Precip. -- in
7:12 AM 5:59 PM
Waning Crescent, 5% visible
Pressure 30.18 in
Visibility 10.0 miles
Clouds Overcast 1800 ft
Windchill 45 °F
Dew Point 49 °F
Humidity 99%
Rainfall 0.00 in
Snow Depth Not available.
UV 0 out of 12
Pollen 1.60 out of 12
PM2.5 Good
Flu Activity Sporadic
METAR KRAC 211353Z AUTO 34010KT 10SM OVC018 08/04 A3017 RMK AO2 SLP218 T00830039

More Conditions Fewer Conditions

Pressure 30.18 in
Visibility 10.0 miles
Clouds Overcast 1800 ft
Windchill 45 °F
Dew Point 49 °F
Humidity 99%
Rainfall 0.00 in
Snow Depth Not available.
UV 0 out of 12
Pollen 1.60 out of 12
PM2.5 Good
Flu Activity Sporadic
METAR KRAC 211353Z AUTO 34010KT 10SM OVC018 08/04 A3017 RMK AO2 SLP218 T00830039

More Conditions Fewer Conditions

10-Day Weather Forecast

Almanac

Astronomy

Oct. 21, 2014 Rise Set
Actual Time 7:12 AM CDT 5:59 PM CDT
Civil Twilight 6:43 AM CDT 6:28 PM CDT
Nautical Twilight 6:10 AM CDT 7:01 PM CDT
Astronomical Twilight 5:37 AM CDT 7:34 PM CDT
Moon 4:53 AM CDT 4:56 PM CDT
Length of Visible Light 11h 45m
Length of Day
10h 47m
Tomorrow will be 2m 44s shorter.
Waning Crescent, 5% of the Moon is Illuminated
Today
Waning Crescent
Oct 23
New
Oct 30
First Quarter
Nov 6
Full
Nov 14
Last Quarter

Today's Extremes

State Highs State Lows

Community

WunderPhotos

Upload Photos

1,763,678 photos uploaded!

Nearby

Air Quality

  Air Quality AQ Index Pollutant
Yesterday Good
PM2.5
Yesterday Good
OZONE
Current Good
PM2.5
Tuesday Good
PM2.5
Wednesday Good
PM2.5
Thursday Good
PM2.5
Friday Good
PM2.5
Saturday Good
PM2.5

Snow Depth

Station Depth Elevation
No new snow has been reported.

Earthquake Activity

City Distance Mag. Time & Date
No recent earthquake activity has been reported nearby.
Minimum magnitude displayed is 2.5.

Coastal Water Temperatures

Place Temperature
No Stations Reporting

Nearby Weather Stations